Time,TemperatureF,DewpointF,PressureIn,WindDirection,WindDirectionDegrees,WindSpeedMPH,WindSpeedGustMPH,Humidity,HourlyPrecipIn,Conditions,Clouds,dailyrainin,SolarRadiationWatts/m^2,SoftwareType,DateUTC
2013-06-25 00:02:00,67.2,65.4,29.81,SSW,209,0.0,0.0,94,0.00,SCT,,0.00,0.0,WeatherDisplay:10.37,2013-06-25 05:02:00,
2013-06-25 00:07:00,67.1,65.3,29.81,SSW,209,0.0,0.0,94,0.00,SCT,,0.00,0.0,WeatherDisplay:10.37,2013-06-25 05:07:00,
2013-06-25 00:12:00,66.9,65.1,29.81,SSW,209,0.0,0.0,94,0.00,SCT,,0.00,0.0,WeatherDisplay:10.37,2013-06-25 05:12:00,
2013-06-25 00:17:00,66.7,64.9,29.82,SSW,209,0.0,0.0,94,0.00,SCT,,0.00,0.0,WeatherDisplay:10.37,2013-06-25 05:17:00,
2013-06-25 00:22:00,66.6,64.8,29.82,SSW,209,0.0,0.0,94,0.00,SCT,,0.00,0.0,WeatherDisplay:10.37,2013-06-25 05:22:00,
2013-06-25 00:27:00,66.5,64.7,29.82,SSW,209,0.0,0.0,94,0.00,SCT,,0.00,0.0,WeatherDisplay:10.37,2013-06-25 05:27:00,
2013-06-25 00:32:00,66.3,64.5,29.82,SSW,209,0.0,0.0,94,0.00,SCT,,0.00,0.0,WeatherDisplay:10.37,2013-06-25 05:32:00,
2013-06-25 00:37:00,66.2,64.4,29.82,SSW,209,0.0,0.0,94,0.00,SCT,,0.00,0.0,WeatherDisplay:10.37,2013-06-25 05:37:00,
2013-06-25 00:42:00,66.1,64.3,29.82,SSW,210,0.0,0.0,94,0.00,SCT,,0.00,0.0,WeatherDisplay:10.37,2013-06-25 05:42:00,
2013-06-25 00:47:00,66.0,64.5,29.82,SSW,209,0.0,0.0,95,0.00,SCT,,0.00,0.0,WeatherDisplay:10.37,2013-06-25 05:47:00,
2013-06-25 00:52:00,66.0,64.5,29.82,SSW,209,0.0,0.0,95,0.00,SCT,,0.00,0.0,WeatherDisplay:10.37,2013-06-25 05:52:00,
2013-06-25 00:57:00,66.0,64.5,29.82,SSW,210,0.0,0.0,95,0.00,SCT,,0.00,0.0,WeatherDisplay:10.37,2013-06-25 05:57:00,
2013-06-25 01:02:00,66.0,64.5,29.82,SSW,209,0.0,0.0,95,0.00,BKN,,0.00,0.0,WeatherDisplay:10.37,2013-06-25 06:02:00,
2013-06-25 01:07:00,66.1,64.9,29.82,SSW,209,0.0,0.0,96,0.00,BKN,,0.00,0.0,WeatherDisplay:10.37,2013-06-25 06:07:00,
2013-06-25 01:12:00,66.1,64.9,29.82,SSW,209,0.0,0.0,96,0.00,BKN,,0.00,0.0,WeatherDisplay:10.37,2013-06-25 06:12:00,
2013-06-25 01:17:00,66.2,65.0,29.81,SSW,209,0.0,0.0,96,0.00,BKN,,0.00,0.0,WeatherDisplay:10.37,2013-06-25 06:17:00,
2013-06-25 01:22:00,66.1,64.9,29.81,SSW,209,0.0,0.0,96,0.00,BKN,,0.00,0.0,WeatherDisplay:10.37,2013-06-25 06:22:00,
2013-06-25 01:27:00,66.1,64.6,29.81,SSW,209,0.0,0.0,95,0.00,BKN,,0.00,0.0,WeatherDisplay:10.37,2013-06-25 06:27:00,
2013-06-25 01:32:00,66.1,64.6,29.81,SSW,209,0.0,0.0,95,0.00,BKN,,0.00,0.0,WeatherDisplay:10.37,2013-06-25 06:32:00,
2013-06-25 01:37:00,65.9,64.4,29.81,SSW,210,0.0,0.0,95,0.00,BKN,,0.00,0.0,WeatherDisplay:10.37,2013-06-25 06:37:00,
2013-06-25 01:42:00,65.8,64.3,29.81,SSW,209,0.0,0.0,95,0.00,BKN,,0.00,0.0,WeatherDisplay:10.37,2013-06-25 06:42:00,
2013-06-25 01:47:00,65.7,64.2,29.81,SSW,209,0.0,0.0,95,0.00,BKN,,0.00,0.0,WeatherDisplay:10.37,2013-06-25 06:47:00,
2013-06-25 01:52:00,65.6,64.1,29.81,SSW,209,0.0,0.0,95,0.00,BKN,,0.00,0.0,WeatherDisplay:10.37,2013-06-25 06:52:00,
2013-06-25 01:57:00,65.4,63.9,29.81,SSW,209,0.0,0.0,95,0.00,BKN,,0.00,0.0,WeatherDisplay:10.37,2013-06-25 06:57:00,
2013-06-25 02:02:00,65.3,63.8,29.81,SSW,209,0.0,0.0,95,0.00,FEW,,0.00,0.0,WeatherDisplay:10.37,2013-06-25 07:02:00,
2013-06-25 02:07:00,65.2,63.7,29.81,SSW,210,0.0,0.0,95,0.00,FEW,,0.00,0.0,WeatherDisplay:10.37,2013-06-25 07:07:00,
2013-06-25 02:12:00,65.0,63.5,29.81,SSW,209,0.0,0.0,95,0.00,FEW,,0.00,0.0,WeatherDisplay:10.37,2013-06-25 07:12:00,
2013-06-25 02:17:00,64.8,63.3,29.81,SSW,209,0.0,0.0,95,0.00,FEW,,0.00,0.0,WeatherDisplay:10.37,2013-06-25 07:17:00,
2013-06-25 02:22:00,64.7,63.2,29.81,SSW,210,0.0,0.0,95,0.00,FEW,,0.00,0.0,WeatherDisplay:10.37,2013-06-25 07:22:00,
2013-06-25 02:27:00,64.6,63.1,29.82,SSW,209,0.0,0.0,95,0.00,FEW,,0.00,0.0,WeatherDisplay:10.37,2013-06-25 07:27:00,
2013-06-25 02:32:00,64.5,63.0,29.81,SSW,209,0.0,0.0,95,0.00,CLR,,0.00,0.0,WeatherDisplay:10.37,2013-06-25 07:32:00,
2013-06-25 02:37:00,64.4,62.9,29.81,SSW,210,0.0,0.0,95,0.00,CLR,,0.00,0.0,WeatherDisplay:10.37,2013-06-25 07:37:00,
2013-06-25 02:42:00,64.2,62.7,29.81,SSW,210,0.0,0.0,95,0.00,CLR,,0.00,0.0,WeatherDisplay:10.37,2013-06-25 07:42:00,
2013-06-25 02:47:00,64.0,62.5,29.81,SSW,209,0.0,0.0,95,0.00,CLR,,0.00,0.0,WeatherDisplay:10.37,2013-06-25 07:47:00,
2013-06-25 02:52:00,63.9,62.4,29.81,SSW,209,0.0,0.0,95,0.00,CLR,,0.00,0.0,WeatherDisplay:10.37,2013-06-25 07:52:00,
2013-06-25 02:57:00,63.8,62.3,29.81,SSW,210,0.0,0.0,95,0.00,CLR,,0.00,0.0,WeatherDisplay:10.37,2013-06-25 07:57:00,
2013-06-25 03:02:00,63.6,62.1,29.81,SSW,209,0.0,0.0,95,0.00,CLR,,0.00,0.0,WeatherDisplay:10.37,2013-06-25 08:02:00,
2013-06-25 03:07:00,63.4,61.9,29.81,SSW,209,0.0,0.0,95,0.00,CLR,,0.00,0.0,WeatherDisplay:10.37,2013-06-25 08:07:00,
2013-06-25 03:12:00,63.2,61.7,29.81,SSW,209,0.0,0.0,95,0.00,CLR,,0.00,0.0,WeatherDisplay:10.37,2013-06-25 08:12:00,
2013-06-25 03:17:00,63.1,61.6,29.81,SSW,209,0.0,0.0,95,0.00,CLR,,0.00,0.0,WeatherDisplay:10.37,2013-06-25 08:17:00,
2013-06-25 03:22:00,62.9,61.4,29.81,SSW,210,0.0,0.0,95,0.00,CLR,,0.00,0.0,WeatherDisplay:10.37,2013-06-25 08:22:00,
2013-06-25 03:27:00,62.7,61.2,29.81,SSW,209,0.0,0.0,95,0.00,CLR,,0.00,0.0,WeatherDisplay:10.37,2013-06-25 08:27:00,
2013-06-25 03:32:00,62.5,61.0,29.81,SSW,209,0.0,0.0,95,0.00,CLR,,0.00,0.0,WeatherDisplay:10.37,2013-06-25 08:32:00,
2013-06-25 03:37:00,62.4,60.9,29.80,SSW,209,0.0,0.0,95,0.00,CLR,,0.00,0.0,WeatherDisplay:10.37,2013-06-25 08:37:00,
2013-06-25 03:42:00,62.2,60.8,29.80,SSW,209,0.0,0.0,95,0.00,CLR,,0.00,0.0,WeatherDisplay:10.37,2013-06-25 08:42:00,
2013-06-25 03:47:00,62.0,60.6,29.80,SSW,209,0.0,0.0,95,0.00,CLR,,0.00,0.0,WeatherDisplay:10.37,2013-06-25 08:47:00,
2013-06-25 03:52:00,61.8,60.4,29.81,SSW,209,0.0,0.0,95,0.00,CLR,,0.00,0.0,WeatherDisplay:10.37,2013-06-25 08:52:00,
2013-06-25 03:57:00,61.6,60.2,29.81,SSW,209,0.0,0.0,95,0.00,CLR,,0.00,0.0,WeatherDisplay:10.37,2013-06-25 08:57:00,
2013-06-25 04:02:00,61.4,60.0,29.81,SSW,209,0.0,0.0,95,0.00,CLR,,0.00,0.0,WeatherDisplay:10.37,2013-06-25 09:02:00,
2013-06-25 04:07:00,61.2,59.8,29.81,SSW,209,0.0,0.0,95,0.00,CLR,,0.00,0.0,WeatherDisplay:10.37,2013-06-25 09:07:00,
2013-06-25 04:12:00,61.0,59.6,29.81,SSW,209,0.0,0.0,95,0.00,CLR,,0.00,0.0,WeatherDisplay:10.37,2013-06-25 09:12:00,
2013-06-25 04:17:00,60.8,59.4,29.81,SSW,210,0.0,0.0,95,0.00,CLR,,0.00,0.0,WeatherDisplay:10.37,2013-06-25 09:17:00,
2013-06-25 04:22:00,60.6,59.2,29.81,SSW,209,0.0,0.0,95,0.00,CLR,,0.00,0.0,WeatherDisplay:10.37,2013-06-25 09:22:00,
2013-06-25 04:27:00,60.4,59.0,29.81,SSW,209,0.0,0.0,95,0.00,CLR,,0.00,0.0,WeatherDisplay:10.37,2013-06-25 09:27:00,
2013-06-25 04:32:00,60.3,58.9,29.81,SSW,209,0.0,0.0,95,0.00,CLR,,0.00,0.0,WeatherDisplay:10.37,2013-06-25 09:32:00,
2013-06-25 04:37:00,60.2,58.8,29.81,SSW,209,0.0,0.0,95,0.00,CLR,,0.00,0.0,WeatherDisplay:10.37,2013-06-25 09:37:00,
2013-06-25 04:42:00,60.0,58.6,29.81,SSW,209,0.0,0.0,95,0.00,CLR,,0.00,0.0,WeatherDisplay:10.37,2013-06-25 09:42:00,
2013-06-25 04:47:00,60.0,58.6,29.81,SSW,209,0.0,0.0,95,0.00,FEW,,0.00,0.0,WeatherDisplay:10.37,2013-06-25 09:47:00,
2013-06-25 04:53:00,59.8,58.4,29.82,SSW,210,0.0,0.0,95,0.00,FEW,,0.00,0.0,WeatherDisplay:10.37,2013-06-25 09:53:00,
2013-06-25 04:57:00,59.7,58.3,29.82,SSW,209,0.0,0.0,95,0.00,FEW,,0.00,0.0,WeatherDisplay:10.37,2013-06-25 09:57:00,
2013-06-25 05:03:00,59.6,58.2,29.82,SSW,210,0.0,0.0,95,0.00,SCT,,0.00,0.0,WeatherDisplay:10.37,2013-06-25 10:03:00,
2013-06-25 05:08:00,59.4,58.0,29.82,SSW,209,0.0,0.0,95,0.00,SCT,,0.00,0.0,WeatherDisplay:10.37,2013-06-25 10:08:00,
2013-06-25 05:13:00,59.3,57.9,29.82,SSW,210,0.0,0.0,95,0.00,SCT,,0.00,0.0,WeatherDisplay:10.37,2013-06-25 10:13:00,
2013-06-25 05:18:00,59.1,57.7,29.82,SSW,210,0.0,0.0,95,0.00,CLR,,0.00,0.0,WeatherDisplay:10.37,2013-06-25 10:18:00,
2013-06-25 05:23:00,58.9,57.5,29.83,SSW,209,0.0,0.0,95,0.00,CLR,,0.00,0.0,WeatherDisplay:10.37,2013-06-25 10:23:00,
2013-06-25 05:28:00,58.8,57.4,29.82,SSW,210,0.0,0.0,95,0.00,OVC,,0.00,0.0,WeatherDisplay:10.37,2013-06-25 10:28:00,
2013-06-25 05:33:00,58.7,57.3,29.82,SSW,209,0.0,0.0,95,0.00,SCT,,0.00,5.0,WeatherDisplay:10.37,2013-06-25 10:33:00,
2013-06-25 05:38:00,58.6,57.5,29.82,SSW,209,0.0,0.0,96,0.00,SCT,,0.00,9.0,WeatherDisplay:10.37,2013-06-25 10:38:00,
2013-06-25 05:43:00,58.6,57.5,29.82,SSW,209,0.0,0.0,96,0.00,SCT,,0.00,11.0,WeatherDisplay:10.37,2013-06-25 10:43:00,
2013-06-25 05:48:00,58.6,57.5,29.82,SSW,210,0.0,0.0,96,0.00,FEW,,0.00,14.0,WeatherDisplay:10.37,2013-06-25 10:48:00,
2013-06-25 05:53:00,58.6,57.5,29.81,SSW,209,0.0,0.0,96,0.00,FEW,,0.00,16.0,WeatherDisplay:10.37,2013-06-25 10:53:00,
2013-06-25 05:58:00,58.6,57.5,29.81,SSW,210,0.0,0.0,96,0.00,FEW,,0.00,19.0,WeatherDisplay:10.37,2013-06-25 10:58:00,
2013-06-25 06:03:00,58.7,57.9,29.81,SSW,209,0.0,0.0,97,0.00,FEW,,0.00,21.0,WeatherDisplay:10.37,2013-06-25 11:03:00,
2013-06-25 06:08:00,58.8,58.0,29.81,SSW,209,0.0,0.0,97,0.00,FEW,,0.00,23.0,WeatherDisplay:10.37,2013-06-25 11:08:00,
2013-06-25 06:13:00,58.9,58.1,29.80,SSW,209,0.0,0.0,97,0.00,FEW,,0.00,21.0,WeatherDisplay:10.37,2013-06-25 11:13:00,
2013-06-25 06:18:00,59.0,58.2,29.81,SSW,209,0.0,0.0,97,0.00,CLR,,0.00,25.0,WeatherDisplay:10.37,2013-06-25 11:18:00,
2013-06-25 06:23:00,59.0,58.2,29.81,SSW,209,0.0,0.0,97,0.00,CLR,,0.00,26.0,WeatherDisplay:10.37,2013-06-25 11:23:00,
2013-06-25 06:28:00,59.1,58.2,29.80,SSW,209,0.0,0.0,97,0.00,CLR,,0.00,32.0,WeatherDisplay:10.37,2013-06-25 11:28:00,
2013-06-25 06:33:00,59.3,58.4,29.81,SSW,209,0.0,0.0,97,0.00,CLR,,0.00,37.0,WeatherDisplay:10.37,2013-06-25 11:33:00,
2013-06-25 06:38:00,59.5,58.6,29.80,SSW,209,0.0,0.0,97,0.00,CLR,,0.00,40.0,WeatherDisplay:10.37,2013-06-25 11:38:00,
2013-06-25 06:43:00,59.7,58.8,29.80,SSW,209,0.0,0.0,97,0.00,CLR,,0.00,44.0,WeatherDisplay:10.37,2013-06-25 11:43:00,
2013-06-25 06:48:00,59.9,59.0,29.80,SSW,209,0.0,0.0,97,0.00,CLR,,0.00,47.0,WeatherDisplay:10.37,2013-06-25 11:48:00,
2013-06-25 06:53:00,60.1,59.2,29.80,SSW,209,0.0,0.0,97,0.00,CLR,,0.00,47.0,WeatherDisplay:10.37,2013-06-25 11:53:00,
2013-06-25 06:58:00,60.3,59.7,29.80,SSW,209,0.0,0.0,98,0.00,CLR,,0.00,47.0,WeatherDisplay:10.37,2013-06-25 11:58:00,
2013-06-25 07:03:00,60.7,60.1,29.80,SSW,209,0.0,0.0,98,0.00,CLR,,0.00,49.0,WeatherDisplay:10.37,2013-06-25 12:03:00,
2013-06-25 07:08:00,60.9,60.3,29.79,SSW,209,0.0,0.0,98,0.00,CLR,,0.00,51.0,WeatherDisplay:10.37,2013-06-25 12:08:00,
2013-06-25 07:13:00,61.1,60.5,29.79,SSW,209,0.0,0.0,98,0.00,CLR,,0.00,51.0,WeatherDisplay:10.37,2013-06-25 12:13:00,
2013-06-25 07:18:00,61.3,60.7,29.80,SSW,209,0.0,0.0,98,0.00,CLR,,0.00,56.0,WeatherDisplay:10.37,2013-06-25 12:18:00,
2013-06-25 07:23:00,61.6,61.0,29.80,SSW,209,0.0,0.0,98,0.00,CLR,,0.00,63.0,WeatherDisplay:10.37,2013-06-25 12:23:00,
2013-06-25 07:28:00,62.0,61.4,29.80,SSW,209,0.0,0.0,98,0.00,CLR,,0.00,72.0,WeatherDisplay:10.37,2013-06-25 12:28:00,
2013-06-25 07:33:00,62.2,61.6,29.80,SSW,209,0.0,0.0,98,0.00,CLR,,0.00,79.0,WeatherDisplay:10.37,2013-06-25 12:33:00,
2013-06-25 07:38:00,62.7,62.1,29.80,SSW,209,0.0,0.0,98,0.00,CLR,,0.00,98.0,WeatherDisplay:10.37,2013-06-25 12:38:00,
2013-06-25 07:43:00,63.1,62.5,29.79,SSW,209,0.0,0.0,98,0.00,CLR,,0.00,123.0,WeatherDisplay:10.37,2013-06-25 12:43:00,
2013-06-25 07:48:00,63.5,62.9,29.80,SSW,210,0.0,0.0,98,0.00,CLR,,0.00,109.0,WeatherDisplay:10.37,2013-06-25 12:48:00,
2013-06-25 07:53:00,63.9,63.3,29.80,SSW,209,0.0,0.0,98,0.00,CLR,,0.00,107.0,WeatherDisplay:10.37,2013-06-25 12:53:00,
2013-06-25 07:58:00,64.2,63.6,29.81,SSW,204,2.3,2.3,98,0.00,CLR,,0.00,113.0,WeatherDisplay:10.37,2013-06-25 12:58:00,
2013-06-25 08:03:00,64.5,63.9,29.82,SSE,161,3.5,3.5,98,0.00,CLR,,0.00,118.0,WeatherDisplay:10.37,2013-06-25 13:03:00,
2013-06-25 08:08:00,64.9,64.3,29.82,South,173,2.3,2.3,98,0.00,CLR,,0.00,128.0,WeatherDisplay:10.37,2013-06-25 13:08:00,
2013-06-25 08:13:00,65.3,64.7,29.82,SSE,165,3.5,3.5,98,0.00,CLR,,0.00,137.0,WeatherDisplay:10.37,2013-06-25 13:13:00,
2013-06-25 08:18:00,65.6,65.0,29.82,SSW,207,2.3,2.3,98,0.00,CLR,,0.00,127.0,WeatherDisplay:10.37,2013-06-25 13:18:00,
2013-06-25 08:23:00,65.8,64.9,29.82,SSW,205,1.1,0.0,97,0.00,CLR,,0.00,132.0,WeatherDisplay:10.37,2013-06-25 13:23:00,
2013-06-25 08:28:00,66.1,65.2,29.82,SSW,205,1.1,1.1,97,0.00,CLR,,0.00,135.0,WeatherDisplay:10.37,2013-06-25 13:28:00,
2013-06-25 08:33:00,66.5,65.6,29.82,SSW,205,0.0,0.0,97,0.00,CLR,,0.00,128.0,WeatherDisplay:10.37,2013-06-25 13:33:00,
2013-06-25 08:38:00,66.7,65.2,29.82,South,190,2.3,2.3,95,0.00,CLR,,0.00,121.0,WeatherDisplay:10.37,2013-06-25 13:38:00,
2013-06-25 08:43:00,67.1,65.6,29.82,WSW,252,3.5,3.5,95,0.00,CLR,,0.00,104.0,WeatherDisplay:10.37,2013-06-25 13:43:00,
2013-06-25 08:48:00,67.5,66.0,29.82,WSW,252,1.1,1.1,95,0.00,CLR,,0.00,97.0,WeatherDisplay:10.37,2013-06-25 13:48:00,
2013-06-25 08:53:00,67.7,65.6,29.82,WSW,252,0.0,0.0,93,0.00,CLR,,0.00,105.0,WeatherDisplay:10.37,2013-06-25 13:53:00,
2013-06-25 08:58:00,68.0,65.6,29.82,SSW,199,1.0,1.0,92,0.00,CLR,,0.00,125.0,WeatherDisplay:10.37,2013-06-25 13:58:00,
2013-06-25 09:03:00,68.3,65.9,29.82,SSW,199,1.1,0.0,92,0.00,CLR,,0.00,128.0,WeatherDisplay:10.37,2013-06-25 14:03:00,
2013-06-25 09:08:00,68.7,66.3,29.81,West,261,3.5,3.5,92,0.00,CLR,,0.00,88.0,WeatherDisplay:10.37,2013-06-25 14:08:00,
2013-06-25 09:13:00,69.0,65.9,29.81,West,261,0.0,0.0,90,0.00,CLR,,0.00,93.0,WeatherDisplay:10.37,2013-06-25 14:13:00,
2013-06-25 09:18:00,69.2,66.1,29.81,West,261,1.1,1.1,90,0.00,CLR,,0.00,127.0,WeatherDisplay:10.37,2013-06-25 14:18:00,
2013-06-25 09:23:00,69.4,66.3,29.81,West,261,2.3,2.3,90,0.00,CLR,,0.00,120.0,WeatherDisplay:10.37,2013-06-25 14:23:00,
2013-06-25 09:28:00,69.7,66.3,29.81,SSE,164,3.5,3.5,89,0.00,CLR,,0.00,98.0,WeatherDisplay:10.37,2013-06-25 14:28:00,
2013-06-25 09:33:00,69.9,65.9,29.81,SSE,165,3.5,3.5,87,0.00,CLR,,0.00,97.0,WeatherDisplay:10.37,2013-06-25 14:33:00,
2013-06-25 09:38:00,70.1,65.7,29.80,SW,225,2.3,2.3,86,0.00,CLR,,0.00,116.0,WeatherDisplay:10.37,2013-06-25 14:38:00,
2013-06-25 09:43:00,70.5,65.8,29.81,WSW,246,2.3,2.3,85,0.00,CLR,,0.00,114.0,WeatherDisplay:10.37,2013-06-25 14:43:00,
2013-06-25 09:48:00,70.9,66.5,29.81,SW,232,3.5,3.5,86,0.00,CLR,,0.00,135.0,WeatherDisplay:10.37,2013-06-25 14:48:00,
2013-06-25 09:53:00,71.3,66.6,29.81,SW,232,1.1,0.0,85,0.00,CLR,,0.00,107.0,WeatherDisplay:10.37,2013-06-25 14:53:00,
2013-06-25 09:58:00,71.5,66.8,29.81,WSW,239,3.0,3.0,85,0.00,CLR,,0.00,88.0,WeatherDisplay:10.37,2013-06-25 14:58:00,
2013-06-25 10:03:00,72.0,67.2,29.81,SW,235,2.0,2.0,85,0.00,CLR,,0.00,102.0,WeatherDisplay:10.37,2013-06-25 15:03:00,
2013-06-25 10:08:00,72.5,67.7,29.81,WSW,256,1.1,1.3,85,0.00,CLR,,0.00,156.0,WeatherDisplay:10.37,2013-06-25 15:08:00,
2013-06-25 10:13:00,72.8,67.3,29.81,SW,232,4.6,4.6,83,0.00,CLR,,0.00,98.0,WeatherDisplay:10.37,2013-06-25 15:13:00,
2013-06-25 10:18:00,73.2,67.7,29.80,SSE,155,3.5,3.5,83,0.00,CLR,,0.00,132.0,WeatherDisplay:10.37,2013-06-25 15:18:00,
2013-06-25 10:23:00,73.6,68.1,29.80,ESE,111,2.3,2.3,83,0.00,CLR,,0.00,264.0,WeatherDisplay:10.37,2013-06-25 15:23:00,
2013-06-25 10:28:00,74.0,68.2,29.80,SSW,202,2.3,2.3,82,0.00,CLR,,0.00,241.0,WeatherDisplay:10.37,2013-06-25 15:28:00,
2013-06-25 10:33:00,74.3,68.1,29.80,SSE,151,3.5,3.5,81,0.00,CLR,,0.00,169.0,WeatherDisplay:10.37,2013-06-25 15:33:00,
2013-06-25 10:39:00,74.6,68.4,29.80,WSW,241,3.5,3.5,81,0.00,CLR,,0.00,188.0,WeatherDisplay:10.37,2013-06-25 15:39:00,
2013-06-25 10:44:00,74.9,67.9,29.80,WSW,242,1.1,1.1,79,0.00,CLR,,0.00,156.0,WeatherDisplay:10.37,2013-06-25 15:44:00,
2013-06-25 10:49:00,75.3,68.3,29.80,SW,215,2.0,2.0,79,0.00,CLR,,0.00,193.0,WeatherDisplay:10.37,2013-06-25 15:49:00,
2013-06-25 10:54:00,75.6,67.9,29.80,SW,234,3.5,3.5,77,0.00,CLR,,0.00,327.0,WeatherDisplay:10.37,2013-06-25 15:54:00,
2013-06-25 10:59:00,76.0,68.3,29.79,West,269,3.5,3.5,77,0.00,CLR,,0.00,849.0,WeatherDisplay:10.37,2013-06-25 15:59:00,
2013-06-25 11:04:00,76.6,68.5,29.79,ESE,122,3.5,3.5,76,0.00,CLR,,0.00,947.0,WeatherDisplay:10.37,2013-06-25 16:04:00,
2013-06-25 11:09:00,77.4,69.2,29.79,ESE,111,2.3,2.3,76,0.00,CLR,,0.00,951.0,WeatherDisplay:10.37,2013-06-25 16:09:00,
2013-06-25 11:14:00,78.0,69.0,29.79,ESE,117,2.3,2.3,74,0.00,CLR,,0.00,285.0,WeatherDisplay:10.37,2013-06-25 16:14:00,
2013-06-25 11:19:00,78.0,68.6,29.80,SE,128,4.6,4.6,73,0.00,CLR,,0.00,199.0,WeatherDisplay:10.37,2013-06-25 16:19:00,
2013-06-25 11:24:00,78.0,69.0,29.79,SSW,194,4.6,4.6,74,0.00,CLR,,0.00,946.0,WeatherDisplay:10.37,2013-06-25 16:24:00,
2013-06-25 11:29:00,78.0,69.4,29.79,SW,228,2.3,2.3,75,0.00,CLR,,0.00,165.0,WeatherDisplay:10.37,2013-06-25 16:29:00,
2013-06-25 11:34:00,78.0,69.0,29.79,SE,135,2.3,2.3,74,0.00,CLR,,0.00,218.0,WeatherDisplay:10.37,2013-06-25 16:34:00,
2013-06-25 11:39:00,77.9,69.3,29.79,SSW,202,1.1,1.1,75,0.00,CLR,,0.00,174.0,WeatherDisplay:10.37,2013-06-25 16:39:00,
2013-06-25 11:44:00,78.5,69.5,29.79,SSE,158,2.0,2.0,74,0.00,CLR,,0.00,847.0,WeatherDisplay:10.37,2013-06-25 16:44:00,
2013-06-25 11:49:00,79.0,70.4,29.79,ESE,109,2.3,2.3,75,0.00,CLR,,0.00,958.0,WeatherDisplay:10.37,2013-06-25 16:49:00,
2013-06-25 11:54:00,79.1,70.1,29.79,WSW,237,3.5,3.5,74,0.00,CLR,,0.00,972.0,WeatherDisplay:10.37,2013-06-25 16:54:00,
2013-06-25 11:59:00,79.4,70.0,29.79,SSE,167,1.1,1.1,73,0.00,CLR,,0.00,1025.0,WeatherDisplay:10.37,2013-06-25 16:59:00,
2013-06-25 12:04:00,79.6,69.4,29.79,ESE,104,1.1,1.1,71,0.00,CLR,,0.00,258.0,WeatherDisplay:10.37,2013-06-25 17:04:00,
2013-06-25 12:09:00,79.9,69.2,29.79,WSW,256,3.5,3.5,70,0.00,CLR,,0.00,900.0,WeatherDisplay:10.37,2013-06-25 17:09:00,
2013-06-25 12:14:00,80.5,69.8,29.79,SSE,153,3.5,3.5,70,0.00,CLR,,0.00,986.0,WeatherDisplay:10.37,2013-06-25 17:14:00,
2013-06-25 12:19:00,80.8,68.8,29.79,ESE,108,2.3,2.3,67,0.00,CLR,,0.00,914.0,WeatherDisplay:10.37,2013-06-25 17:19:00,
2013-06-25 12:24:00,80.6,69.1,29.79,ESE,113,1.1,1.1,68,0.00,CLR,,0.00,255.0,WeatherDisplay:10.37,2013-06-25 17:24:00,
2013-06-25 12:29:00,80.2,68.7,29.79,SSE,167,3.5,3.5,68,0.00,CLR,,0.00,345.0,WeatherDisplay:10.37,2013-06-25 17:29:00,
2013-06-25 12:34:00,80.3,68.8,29.78,SE,128,1.1,1.1,68,0.00,CLR,,0.00,288.0,WeatherDisplay:10.37,2013-06-25 17:34:00,
2013-06-25 12:39:00,80.5,69.4,29.78,SSW,211,2.3,2.3,69,0.00,CLR,,0.00,881.0,WeatherDisplay:10.37,2013-06-25 17:39:00,
2013-06-25 12:44:00,80.6,70.3,29.78,ESE,107,2.0,2.0,71,0.00,CLR,,0.00,824.0,WeatherDisplay:10.37,2013-06-25 17:44:00,
2013-06-25 12:49:00,80.4,69.3,29.78,ESE,109,2.3,2.3,69,0.00,CLR,,0.00,267.0,WeatherDisplay:10.37,2013-06-25 17:49:00,
2013-06-25 12:54:00,80.0,68.9,29.78,ESE,109,2.3,2.3,69,0.00,CLR,,0.00,376.0,WeatherDisplay:10.37,2013-06-25 17:54:00,
2013-06-25 12:59:00,79.7,68.2,29.78,ESE,109,1.1,1.1,68,0.00,CLR,,0.00,281.0,WeatherDisplay:10.37,2013-06-25 17:59:00,
2013-06-25 13:04:00,79.8,69.6,29.78,ESE,109,2.3,2.3,71,0.00,BKN,,0.00,698.0,WeatherDisplay:10.37,2013-06-25 18:04:00,
2013-06-25 13:09:00,80.4,70.1,29.78,East,98,2.3,2.3,71,0.00,BKN,,0.00,1028.0,WeatherDisplay:10.37,2013-06-25 18:09:00,
2013-06-25 13:14:00,81.0,71.5,29.78,ESE,115,2.0,2.0,73,0.00,BKN,,0.00,1018.0,WeatherDisplay:10.37,2013-06-25 18:14:00,
2013-06-25 13:19:00,81.5,69.9,29.78,SSE,167,3.5,3.5,68,0.00,BKN,,0.00,967.0,WeatherDisplay:10.37,2013-06-25 18:19:00,
2013-06-25 13:24:00,81.9,69.0,29.78,SSE,155,3.5,3.5,65,0.00,BKN,,0.00,954.0,WeatherDisplay:10.37,2013-06-25 18:24:00,
2013-06-25 13:29:00,82.3,69.8,29.77,SSE,155,2.3,2.3,66,0.00,BKN,,0.00,995.0,WeatherDisplay:10.37,2013-06-25 18:29:00,
2013-06-25 13:34:00,82.5,70.0,29.77,SSW,205,3.5,3.5,66,0.00,BKN,,0.00,944.0,WeatherDisplay:10.37,2013-06-25 18:34:00,
2013-06-25 13:39:00,82.9,71.7,29.77,ESE,103,4.6,4.6,69,0.00,BKN,,0.00,967.0,WeatherDisplay:10.37,2013-06-25 18:39:00,
2013-06-25 13:44:00,82.9,71.3,29.77,SSE,157,2.0,2.0,68,0.00,BKN,,0.00,981.0,WeatherDisplay:10.37,2013-06-25 18:44:00,
2013-06-25 13:49:00,83.0,69.1,29.77,ESE,119,3.5,3.5,63,0.00,BKN,,0.00,735.0,WeatherDisplay:10.37,2013-06-25 18:49:00,
2013-06-25 13:54:00,82.6,70.5,29.77,ESE,115,1.1,0.0,67,0.00,BKN,,0.00,570.0,WeatherDisplay:10.37,2013-06-25 18:54:00,
2013-06-25 13:59:00,82.5,69.1,29.77,SE,134,1.1,1.1,64,0.00,BKN,,0.00,930.0,WeatherDisplay:10.37,2013-06-25 18:59:00,
2013-06-25 14:04:00,82.9,69.0,29.77,West,277,3.5,3.5,63,0.00,BKN,,0.00,939.0,WeatherDisplay:10.37,2013-06-25 19:04:00,
2013-06-25 14:09:00,83.4,68.5,29.77,SSE,165,2.3,2.3,61,0.00,BKN,,0.00,928.0,WeatherDisplay:10.37,2013-06-25 19:09:00,
2013-06-25 14:14:00,83.7,69.3,29.77,WSW,251,6.9,6.9,62,0.00,BKN,,0.00,946.0,WeatherDisplay:10.37,2013-06-25 19:14:00,
2013-06-25 14:19:00,84.0,70.5,29.77,SW,235,3.0,3.0,64,0.00,CLR,,0.00,791.0,WeatherDisplay:10.37,2013-06-25 19:19:00,
2013-06-25 14:24:00,83.8,69.9,29.77,South,178,2.3,2.3,63,0.00,CLR,,0.00,819.0,WeatherDisplay:10.37,2013-06-25 19:24:00,
2013-06-25 14:29:00,83.5,70.0,29.77,East,98,3.5,3.5,64,0.00,CLR,,0.00,680.0,WeatherDisplay:10.37,2013-06-25 19:29:00,
2013-06-25 14:34:00,83.2,68.3,29.77,West,269,3.5,3.5,61,0.00,CLR,,0.00,789.0,WeatherDisplay:10.37,2013-06-25 19:34:00,
2013-06-25 14:39:00,83.4,69.0,29.77,East,94,3.5,3.5,62,0.00,CLR,,0.00,967.0,WeatherDisplay:10.37,2013-06-25 19:39:00,
2013-06-25 14:44:00,83.7,69.3,29.77,ESE,112,3.5,3.5,62,0.00,CLR,,0.00,956.0,WeatherDisplay:10.37,2013-06-25 19:44:00,
2013-06-25 14:49:00,84.0,69.1,29.76,East,101,4.6,4.6,61,0.00,CLR,,0.00,898.0,WeatherDisplay:10.37,2013-06-25 19:49:00,
2013-06-25 14:54:00,84.1,68.7,29.76,ESE,106,2.3,2.3,60,0.00,CLR,,0.00,844.0,WeatherDisplay:10.37,2013-06-25 19:54:00,
2013-06-25 14:59:00,84.1,71.1,29.76,ESE,106,2.3,2.3,65,0.00,CLR,,0.00,703.0,WeatherDisplay:10.37,2013-06-25 19:59:00,
2013-06-25 15:04:00,84.0,68.6,29.76,NNW,336,3.0,3.0,60,0.00,CLR,,0.00,599.0,WeatherDisplay:10.37,2013-06-25 20:04:00,
2013-06-25 15:09:00,84.3,70.3,29.76,SE,141,3.5,3.5,63,0.00,CLR,,0.00,784.0,WeatherDisplay:10.37,2013-06-25 20:09:00,
2013-06-25 15:14:00,84.0,69.6,29.76,ESE,107,3.5,3.5,62,0.00,CLR,,0.00,415.0,WeatherDisplay:10.37,2013-06-25 20:14:00,
2013-06-25 15:19:00,83.7,68.3,29.76,ESE,107,2.3,2.3,60,0.00,CLR,,0.00,925.0,WeatherDisplay:10.37,2013-06-25 20:19:00,
2013-06-25 15:24:00,83.8,68.9,29.76,SSE,150,2.3,2.3,61,0.00,CLR,,0.00,216.0,WeatherDisplay:10.37,2013-06-25 20:24:00,
2013-06-25 15:29:00,83.4,69.0,29.76,ESE,114,3.5,3.5,62,0.00,CLR,,0.00,817.0,WeatherDisplay:10.37,2013-06-25 20:29:00,
2013-06-25 15:34:00,83.1,68.3,29.77,WSW,238,2.3,2.3,61,0.00,CLR,,0.00,174.0,WeatherDisplay:10.37,2013-06-25 20:34:00,
2013-06-25 15:39:00,83.3,69.4,29.77,SE,142,2.3,2.3,63,0.00,CLR,,0.00,891.0,WeatherDisplay:10.37,2013-06-25 20:39:00,
2013-06-25 15:44:00,83.8,69.4,29.77,SSE,168,1.1,1.1,62,0.00,CLR,,0.00,914.0,WeatherDisplay:10.37,2013-06-25 20:44:00,
2013-06-25 15:49:00,84.1,67.7,29.77,SW,231,3.5,3.5,58,0.00,CLR,,0.00,904.0,WeatherDisplay:10.37,2013-06-25 20:49:00,
2013-06-25 15:54:00,84.5,71.4,29.77,SSE,152,2.3,2.3,65,0.00,CLR,,0.00,174.0,WeatherDisplay:10.37,2013-06-25 20:54:00,
2013-06-25 16:00:00,83.9,68.0,29.77,SE,144,3.5,3.5,59,0.00,CLR,,0.00,209.0,WeatherDisplay:10.37,2013-06-25 21:00:00,
2013-06-25 16:05:00,83.6,68.7,29.77,South,182,2.3,2.3,61,0.00,CLR,,0.00,121.0,WeatherDisplay:10.37,2013-06-25 21:05:00,
2013-06-25 16:10:00,83.5,68.6,29.76,South,190,2.3,2.3,61,0.00,CLR,,0.00,255.0,WeatherDisplay:10.37,2013-06-25 21:10:00,
2013-06-25 16:15:00,83.9,70.4,29.76,SW,232,2.3,2.3,64,0.00,CLR,,0.00,821.0,WeatherDisplay:10.37,2013-06-25 21:15:00,
2013-06-25 16:20:00,84.0,69.1,29.76,SSE,150,3.5,3.5,61,0.00,CLR,,0.00,192.0,WeatherDisplay:10.37,2013-06-25 21:20:00,
2013-06-25 16:25:00,83.6,68.7,29.76,WSW,257,2.3,2.3,61,0.00,CLR,,0.00,828.0,WeatherDisplay:10.37,2013-06-25 21:25:00,
2013-06-25 16:30:00,83.0,67.7,29.76,SSE,156,2.3,2.3,60,0.00,CLR,,0.00,153.0,WeatherDisplay:10.37,2013-06-25 21:30:00,
2013-06-25 16:35:00,83.1,68.3,29.76,SSW,201,2.3,2.3,61,0.00,CLR,,0.00,779.0,WeatherDisplay:10.37,2013-06-25 21:35:00,
2013-06-25 16:40:00,83.6,71.0,29.76,SSE,162,2.3,2.3,66,0.00,CLR,,0.00,193.0,WeatherDisplay:10.37,2013-06-25 21:40:00,
2013-06-25 16:45:00,83.5,70.9,29.76,SW,227,2.3,2.3,66,0.00,CLR,,0.00,719.0,WeatherDisplay:10.37,2013-06-25 21:45:00,
2013-06-25 16:50:00,83.6,70.1,29.76,SSE,157,3.5,3.5,64,0.00,CLR,,0.00,647.0,WeatherDisplay:10.37,2013-06-25 21:50:00,
2013-06-25 16:55:00,83.6,68.7,29.76,SE,146,3.5,3.5,61,0.00,CLR,,0.00,619.0,WeatherDisplay:10.37,2013-06-25 21:55:00,
2013-06-25 17:00:00,83.7,68.8,29.76,SSE,167,3.0,3.0,61,0.00,CLR,,0.00,608.0,WeatherDisplay:10.37,2013-06-25 22:00:00,
2013-06-25 17:05:00,83.8,68.4,29.76,SSW,212,2.3,2.3,60,0.00,CLR,,0.00,605.0,WeatherDisplay:10.37,2013-06-25 22:05:00,
2013-06-25 17:10:00,84.2,69.3,29.75,SSE,161,3.5,3.5,61,0.00,CLR,,0.00,601.0,WeatherDisplay:10.37,2013-06-25 22:10:00,
2013-06-25 17:15:00,84.1,68.2,29.76,SSE,159,6.9,6.9,59,0.00,CLR,,0.00,550.0,WeatherDisplay:10.37,2013-06-25 22:15:00,
2013-06-25 17:20:00,84.0,68.6,29.75,SW,234,1.1,1.1,60,0.00,CLR,,0.00,552.0,WeatherDisplay:10.37,2013-06-25 22:20:00,
2013-06-25 17:25:00,84.1,68.2,29.75,WSW,242,5.8,5.8,59,0.00,CLR,,0.00,540.0,WeatherDisplay:10.37,2013-06-25 22:25:00,
2013-06-25 17:30:00,83.8,67.9,29.75,ESE,119,3.5,3.5,59,0.00,CLR,,0.00,524.0,WeatherDisplay:10.37,2013-06-25 22:30:00,
2013-06-25 17:35:00,83.6,68.2,29.75,SSE,150,3.5,3.5,60,0.00,CLR,,0.00,506.0,WeatherDisplay:10.37,2013-06-25 22:35:00,
2013-06-25 17:40:00,83.4,68.1,29.75,SSW,194,3.5,3.5,60,0.00,CLR,,0.00,378.0,WeatherDisplay:10.37,2013-06-25 22:40:00,
2013-06-25 17:45:00,83.1,69.2,29.75,South,190,2.3,2.3,63,0.00,CLR,,0.00,100.0,WeatherDisplay:10.37,2013-06-25 22:45:00,
2013-06-25 17:50:00,82.3,69.4,29.76,SE,124,1.1,0.0,65,0.00,CLR,,0.00,58.0,WeatherDisplay:10.37,2013-06-25 22:50:00,
2013-06-25 17:55:00,81.9,68.5,29.76,South,171,3.5,3.5,64,0.00,CLR,,0.00,35.0,WeatherDisplay:10.37,2013-06-25 22:55:00,
2013-06-25 18:00:00,81.5,68.6,29.75,South,190,2.3,2.3,65,0.00,CLR,,0.00,44.0,WeatherDisplay:10.37,2013-06-25 23:00:00,
2013-06-25 18:05:00,81.2,69.6,29.75,West,267,3.0,3.0,68,0.00,CLR,,0.00,44.0,WeatherDisplay:10.37,2013-06-25 23:05:00,
2013-06-25 18:10:00,80.8,69.2,29.75,SW,216,3.5,3.5,68,0.00,CLR,,0.00,44.0,WeatherDisplay:10.37,2013-06-25 23:10:00,
2013-06-25 18:15:00,80.6,67.7,29.75,South,180,3.5,3.5,65,0.00,CLR,,0.00,42.0,WeatherDisplay:10.37,2013-06-25 23:15:00,
2013-06-25 18:20:00,80.6,67.7,29.75,SSW,198,3.5,3.5,65,0.00,CLR,,0.00,40.0,WeatherDisplay:10.37,2013-06-25 23:20:00,
2013-06-25 18:25:00,80.5,68.1,29.75,SW,229,3.5,3.5,66,0.00,CLR,,0.00,39.0,WeatherDisplay:10.37,2013-06-25 23:25:00,
2013-06-25 18:30:00,80.4,68.4,29.75,South,179,2.3,2.3,67,0.00,CLR,,0.00,37.0,WeatherDisplay:10.37,2013-06-25 23:30:00,
2013-06-25 18:36:00,80.0,68.9,29.75,South,173,1.1,0.0,69,0.00,CLR,,0.00,37.0,WeatherDisplay:10.37,2013-06-25 23:36:00,
2013-06-25 18:41:00,79.7,69.0,29.74,South,178,1.1,1.1,70,0.00,CLR,,0.00,35.0,WeatherDisplay:10.37,2013-06-25 23:41:00,
2013-06-25 18:46:00,79.4,67.5,29.74,South,180,2.3,2.3,67,0.00,CLR,,0.00,33.0,WeatherDisplay:10.37,2013-06-25 23:46:00,
2013-06-25 18:51:00,79.3,68.7,29.74,South,171,3.0,3.0,70,0.00,CLR,,0.00,33.0,WeatherDisplay:10.37,2013-06-25 23:51:00,
2013-06-25 18:56:00,78.9,69.1,29.74,South,171,1.0,0.0,72,0.00,CLR,,0.00,32.0,WeatherDisplay:10.37,2013-06-25 23:56:00,
2013-06-25 19:01:00,78.7,68.5,29.74,South,178,3.5,3.5,71,0.00,CLR,,0.00,32.0,WeatherDisplay:10.37,2013-06-26 00:01:00,
2013-06-25 19:06:00,78.5,67.1,29.74,South,175,2.3,2.3,68,0.00,CLR,,0.00,30.0,WeatherDisplay:10.37,2013-06-26 00:06:00,
2013-06-25 19:11:00,78.4,68.6,29.74,South,175,0.0,0.0,72,0.00,CLR,,0.00,30.0,WeatherDisplay:10.37,2013-06-26 00:11:00,
2013-06-25 19:16:00,78.3,68.9,29.74,South,175,1.1,1.1,73,0.00,CLR,,0.00,28.0,WeatherDisplay:10.37,2013-06-26 00:16:00,
2013-06-25 19:21:00,78.0,67.8,29.74,South,169,2.3,2.3,71,0.00,CLR,,0.00,26.0,WeatherDisplay:10.37,2013-06-26 00:21:00,
2013-06-25 19:26:00,77.9,68.5,29.74,South,169,0.0,0.0,73,0.00,CLR,,0.00,25.0,WeatherDisplay:10.37,2013-06-26 00:26:00,
2013-06-25 19:31:00,77.7,68.7,29.74,South,169,0.0,0.0,74,0.00,CLR,,0.00,25.0,WeatherDisplay:10.37,2013-06-26 00:31:00,
2013-06-25 19:36:00,77.4,67.7,29.74,South,169,0.0,0.0,72,0.00,CLR,,0.00,23.0,WeatherDisplay:10.37,2013-06-26 00:36:00,
2013-06-25 19:41:00,77.0,68.5,29.73,South,169,1.1,0.0,75,0.00,CLR,,0.00,21.0,WeatherDisplay:10.37,2013-06-26 00:41:00,
2013-06-25 19:46:00,76.9,68.8,29.73,South,169,0.0,0.0,76,0.00,CLR,,0.00,19.0,WeatherDisplay:10.37,2013-06-26 00:46:00,
2013-06-25 19:51:00,76.5,68.0,29.74,South,172,0.0,0.0,75,0.00,CLR,,0.00,19.0,WeatherDisplay:10.37,2013-06-26 00:51:00,
2013-06-25 19:56:00,76.2,68.1,29.73,South,172,0.0,0.0,76,0.00,CLR,,0.00,18.0,WeatherDisplay:10.37,2013-06-26 00:56:00,
2013-06-25 20:01:00,75.8,67.3,29.74,South,172,0.0,0.0,75,0.00,CLR,,0.00,16.0,WeatherDisplay:10.37,2013-06-26 01:01:00,
2013-06-25 20:06:00,75.5,67.8,29.74,South,172,0.0,0.0,77,0.00,CLR,,0.00,14.0,WeatherDisplay:10.37,2013-06-26 01:06:00,
2013-06-25 20:11:00,75.1,68.5,29.74,South,172,0.0,0.0,80,0.00,CLR,,0.00,12.0,WeatherDisplay:10.37,2013-06-26 01:11:00,
2013-06-25 20:16:00,74.9,68.3,29.73,South,172,0.0,0.0,80,0.00,CLR,,0.00,11.0,WeatherDisplay:10.37,2013-06-26 01:16:00,
2013-06-25 20:21:00,74.7,68.5,29.74,South,171,0.0,0.0,81,0.00,CLR,,0.00,9.0,WeatherDisplay:10.37,2013-06-26 01:21:00,
2013-06-25 20:26:00,74.4,68.5,29.73,South,172,0.0,0.0,82,0.00,CLR,,0.00,9.0,WeatherDisplay:10.37,2013-06-26 01:26:00,
2013-06-25 20:31:00,74.1,68.6,29.73,South,172,0.0,0.0,83,0.00,CLR,,0.00,7.0,WeatherDisplay:10.37,2013-06-26 01:31:00,
2013-06-25 20:36:00,73.9,68.4,29.73,South,172,0.0,0.0,83,0.00,CLR,,0.00,5.0,WeatherDisplay:10.37,2013-06-26 01:36:00,
2013-06-25 20:41:00,73.6,67.8,29.73,South,172,0.0,0.0,82,0.00,CLR,,0.00,5.0,WeatherDisplay:10.37,2013-06-26 01:41:00,
2013-06-25 20:46:00,73.3,67.8,29.73,South,172,0.0,0.0,83,0.00,CLR,,0.00,0.0,WeatherDisplay:10.37,2013-06-26 01:46:00,
2013-06-25 20:51:00,72.9,67.8,29.73,South,172,0.0,0.0,84,0.00,CLR,,0.00,0.0,WeatherDisplay:10.37,2013-06-26 01:51:00,
2013-06-25 20:56:00,72.5,67.4,29.73,South,171,0.0,0.0,84,0.00,CLR,,0.00,0.0,WeatherDisplay:10.37,2013-06-26 01:56:00,
2013-06-25 21:01:00,72.1,67.3,29.73,South,172,0.0,0.0,85,0.00,CLR,,0.00,0.0,WeatherDisplay:10.37,2013-06-26 02:01:00,
2013-06-25 21:06:00,71.7,66.9,29.73,South,172,0.0,0.0,85,0.00,CLR,,0.00,0.0,WeatherDisplay:10.37,2013-06-26 02:06:00,
2013-06-25 21:11:00,71.3,66.9,29.74,South,172,0.0,0.0,86,0.00,CLR,,0.00,0.0,WeatherDisplay:10.37,2013-06-26 02:11:00,
2013-06-25 21:16:00,71.0,66.9,29.74,South,172,0.0,0.0,87,0.00,CLR,,0.00,0.0,WeatherDisplay:10.37,2013-06-26 02:16:00,
2013-06-25 21:21:00,70.6,66.5,29.74,South,172,0.0,0.0,87,0.00,CLR,,0.00,0.0,WeatherDisplay:10.37,2013-06-26 02:21:00,
2013-06-25 21:26:00,70.1,66.0,29.74,South,172,0.0,0.0,87,0.00,CLR,,0.00,0.0,WeatherDisplay:10.37,2013-06-26 02:26:00,
2013-06-25 21:31:00,69.7,66.0,29.74,South,172,0.0,0.0,88,0.00,CLR,,0.00,0.0,WeatherDisplay:10.37,2013-06-26 02:31:00,
2013-06-25 21:36:00,69.4,66.0,29.74,South,172,0.0,0.0,89,0.00,CLR,,0.00,0.0,WeatherDisplay:10.37,2013-06-26 02:36:00,
2013-06-25 21:41:00,69.0,65.9,29.73,South,172,0.0,0.0,90,0.00,CLR,,0.00,0.0,WeatherDisplay:10.37,2013-06-26 02:41:00,
2013-06-25 21:46:00,68.8,65.7,29.73,South,172,0.0,0.0,90,0.00,CLR,,0.00,0.0,WeatherDisplay:10.37,2013-06-26 02:46:00,
2013-06-25 21:51:00,68.5,65.4,29.74,South,172,0.0,0.0,90,0.00,CLR,,0.00,0.0,WeatherDisplay:10.37,2013-06-26 02:51:00,
2013-06-25 21:56:00,68.2,65.2,29.74,South,172,0.0,0.0,90,0.00,CLR,,0.00,0.0,WeatherDisplay:10.37,2013-06-26 02:56:00,
2013-06-25 22:01:00,67.9,64.9,29.73,South,172,0.0,0.0,90,0.00,CLR,,0.00,0.0,WeatherDisplay:10.37,2013-06-26 03:01:00,
2013-06-25 22:06:00,67.7,65.0,29.73,South,172,0.0,0.0,91,0.00,CLR,,0.00,0.0,WeatherDisplay:10.37,2013-06-26 03:06:00,
2013-06-25 22:11:00,67.5,64.8,29.74,South,172,0.0,0.0,91,0.00,CLR,,0.00,0.0,WeatherDisplay:10.37,2013-06-26 03:11:00,
2013-06-25 22:16:00,67.4,65.0,29.73,South,172,0.0,0.0,92,0.00,CLR,,0.00,0.0,WeatherDisplay:10.37,2013-06-26 03:16:00,
2013-06-25 22:21:00,67.2,64.8,29.74,South,172,0.0,0.0,92,0.00,CLR,,0.00,0.0,WeatherDisplay:10.37,2013-06-26 03:21:00,
2013-06-25 22:26:00,67.0,64.3,29.73,South,172,0.0,0.0,91,0.00,CLR,,0.00,0.0,WeatherDisplay:10.37,2013-06-26 03:26:00,
2013-06-25 22:31:00,66.7,64.3,29.73,South,172,0.0,0.0,92,0.00,CLR,,0.00,0.0,WeatherDisplay:10.37,2013-06-26 03:31:00,
2013-06-25 22:36:00,66.5,64.1,29.73,South,172,0.0,0.0,92,0.00,CLR,,0.00,0.0,WeatherDisplay:10.37,2013-06-26 03:36:00,
2013-06-25 22:41:00,66.3,63.9,29.73,South,172,0.0,0.0,92,0.00,CLR,,0.00,0.0,WeatherDisplay:10.37,2013-06-26 03:41:00,
2013-06-25 22:46:00,66.1,63.7,29.73,South,172,0.0,0.0,92,0.00,CLR,,0.00,0.0,WeatherDisplay:10.37,2013-06-26 03:46:00,
2013-06-25 22:51:00,66.0,63.9,29.73,South,172,0.0,0.0,93,0.00,CLR,,0.00,0.0,WeatherDisplay:10.37,2013-06-26 03:51:00,
2013-06-25 22:56:00,65.8,63.7,29.73,South,172,0.0,0.0,93,0.00,CLR,,0.00,0.0,WeatherDisplay:10.37,2013-06-26 03:56:00,
2013-06-25 23:01:00,65.7,63.6,29.73,South,172,0.0,0.0,93,0.00,CLR,,0.00,0.0,WeatherDisplay:10.37,2013-06-26 04:01:00,
2013-06-25 23:06:00,65.5,63.4,29.73,South,172,0.0,0.0,93,0.00,CLR,,0.00,0.0,WeatherDisplay:10.37,2013-06-26 04:06:00,
2013-06-25 23:11:00,65.3,63.2,29.73,South,172,0.0,0.0,93,0.00,CLR,,0.00,0.0,WeatherDisplay:10.37,2013-06-26 04:11:00,
2013-06-25 23:16:00,65.1,63.0,29.73,South,172,0.0,0.0,93,0.00,CLR,,0.00,0.0,WeatherDisplay:10.37,2013-06-26 04:16:00,
2013-06-25 23:21:00,64.9,62.8,29.72,South,172,0.0,0.0,93,0.00,CLR,,0.00,0.0,WeatherDisplay:10.37,2013-06-26 04:21:00,
2013-06-25 23:26:00,64.8,62.7,29.73,South,172,0.0,0.0,93,0.00,CLR,,0.00,0.0,WeatherDisplay:10.37,2013-06-26 04:26:00,
2013-06-25 23:31:00,64.7,62.6,29.73,South,172,0.0,0.0,93,0.00,CLR,,0.00,0.0,WeatherDisplay:10.37,2013-06-26 04:31:00,
2013-06-25 23:36:00,64.5,62.4,29.73,South,172,0.0,0.0,93,0.00,CLR,,0.00,0.0,WeatherDisplay:10.37,2013-06-26 04:36:00,
2013-06-25 23:41:00,64.4,62.3,29.73,South,172,0.0,0.0,93,0.00,CLR,,0.00,0.0,WeatherDisplay:10.37,2013-06-26 04:41:00,
2013-06-25 23:46:00,64.2,62.1,29.73,South,172,0.0,0.0,93,0.00,CLR,,0.00,0.0,WeatherDisplay:10.37,2013-06-26 04:46:00,
2013-06-25 23:51:00,64.1,62.3,29.73,South,172,0.0,0.0,94,0.00,CLR,,0.00,0.0,WeatherDisplay:10.37,2013-06-26 04:51:00,
2013-06-25 23:56:00,64.0,62.2,29.73,South,172,0.0,0.0,94,0.00,CLR,,0.00,0.0,WeatherDisplay:10.37,2013-06-26 04:56:00,